Arlington, Tennessee
Current Conditions -  °F | °C
As of 2:35 AM on Monday 26 Jan 2015 (Local Time) from KNQA Reporting Station
Overcast Overcast  
Wind Chill: 32°   Ceiling: 2100
Heat Index: 39°   Visibility: 10mi
Dew Point: 34°   Wind: 10mph
Humidity: 81%   Direction: 310°NW
Pressure: 30.01"   Gusts: NA
Location:  35.3°N, 89.66°W
Report Text: KNQA 260835Z AUTO 31009KT 10SM BKN021 OVC026 04/01 A3001 RMK
Loading
Personal Weather Stations






























Interactive Weather Map New forecast layout! Learn more

10-Day Weather Forecast

Advertisements
Track Severe Weather on mobile